createdAt,value
2023-12-04T00:00:34.983Z,-0.15
2023-12-04T00:03:01.835Z,-0.14
2023-12-04T00:05:28.973Z,-0.17
2023-12-04T00:07:55.807Z,-0.23
2023-12-04T00:10:22.717Z,-0.22
2023-12-04T00:12:50.874Z,-0.22
2023-12-04T00:15:20.238Z,-0.31
2023-12-04T00:17:47.215Z,-0.25
2023-12-04T00:20:14.147Z,-0.27
2023-12-04T00:22:41.004Z,-0.25
2023-12-04T00:25:08.535Z,-0.26
2023-12-04T00:27:35.480Z,-0.26
2023-12-04T00:30:04.977Z,-0.32
2023-12-04T00:32:31.977Z,-0.30
2023-12-04T00:34:59.183Z,-0.28
2023-12-04T00:37:28.278Z,-0.29
2023-12-04T00:39:55.291Z,-0.39
2023-12-04T00:42:22.145Z,-0.36
2023-12-04T00:44:48.980Z,-0.34
2023-12-04T00:47:16.268Z,-0.33
2023-12-04T00:49:43.119Z,-0.34
2023-12-04T00:52:10.017Z,-0.33
2023-12-04T00:54:40.221Z,-0.32
2023-12-04T00:57:07.384Z,-0.34
2023-12-04T00:59:34.273Z,-0.36
2023-12-04T01:02:01.698Z,-0.36
2023-12-04T01:04:28.585Z,-0.38
2023-12-04T01:06:55.527Z,-0.43
2023-12-04T01:09:25.237Z,-0.42
2023-12-04T01:11:55.523Z,-0.43
2023-12-04T01:14:24.107Z,-0.44
2023-12-04T01:16:50.927Z,-0.49
2023-12-04T01:19:18.474Z,-0.49
2023-12-04T01:21:45.381Z,-0.47
2023-12-04T01:24:12.395Z,-0.50
2023-12-04T01:26:39.416Z,-0.66
2023-12-04T01:29:06.445Z,-0.46
2023-12-04T01:31:33.391Z,-0.46
2023-12-04T01:34:00.702Z,-0.48
2023-12-04T01:36:27.572Z,-0.49
2023-12-04T01:38:54.400Z,-0.53
2023-12-04T01:41:21.981Z,-0.48
2023-12-04T01:43:48.807Z,-0.67
2023-12-04T01:46:18.406Z,-0.55
2023-12-04T01:48:48.620Z,-0.54
2023-12-04T01:51:18.148Z,-0.54
2023-12-04T01:53:45.396Z,-0.57
2023-12-04T01:56:13.012Z,-0.64
2023-12-04T01:58:39.906Z,-0.54
2023-12-04T02:01:07.398Z,-0.56
2023-12-04T02:03:34.976Z,-0.87
2023-12-04T02:06:04.848Z,-0.67
2023-12-04T02:08:32.283Z,-0.62
2023-12-04T02:11:00.792Z,-0.63
2023-12-04T02:13:28.737Z,-0.65
2023-12-04T02:15:56.757Z,-0.67
2023-12-04T02:18:25.125Z,-0.70
2023-12-04T02:20:52.625Z,-0.72
2023-12-04T02:23:19.470Z,-0.74
2023-12-04T02:25:46.372Z,-0.76
2023-12-04T02:28:16.924Z,-0.91
2023-12-04T02:30:45.390Z,-0.82
2023-12-04T02:33:14.573Z,-0.76
2023-12-04T02:35:43.235Z,-0.74
2023-12-04T02:38:10.823Z,-0.74
2023-12-04T02:40:37.777Z,-0.73
2023-12-04T02:43:04.672Z,-0.78
2023-12-04T02:45:31.627Z,-0.75
2023-12-04T02:47:58.982Z,-0.73
2023-12-04T02:50:25.857Z,-0.73
2023-12-04T02:52:52.703Z,-0.71
2023-12-04T02:55:19.502Z,-0.73
2023-12-04T02:57:46.471Z,-0.73
2023-12-04T03:00:14.127Z,-0.71
2023-12-04T03:02:41.127Z,-0.70
2023-12-04T03:05:08.143Z,-0.72
2023-12-04T03:07:35.003Z,-0.81
2023-12-04T03:10:02.220Z,-0.72
2023-12-04T03:12:29.134Z,-0.74
2023-12-04T03:14:55.940Z,-0.73
2023-12-04T03:17:22.924Z,-0.79
2023-12-04T03:19:49.786Z,-0.76
2023-12-04T03:22:19.615Z,-0.71
2023-12-04T03:24:47.662Z,-0.71
2023-12-04T03:27:14.552Z,-0.74
2023-12-04T03:29:41.416Z,-0.73
2023-12-04T03:32:08.310Z,-0.75
2023-12-04T03:34:35.243Z,-0.74
2023-12-04T03:37:02.181Z,-0.74
2023-12-04T03:39:29.054Z,-0.71
2023-12-04T03:41:55.969Z,-0.70
2023-12-04T03:44:24.102Z,-0.71
2023-12-04T03:46:50.993Z,-0.79
2023-12-04T03:49:17.874Z,-0.72
2023-12-04T03:51:44.782Z,-0.74
2023-12-04T03:54:12.405Z,-0.73
2023-12-04T03:56:39.262Z,-0.77
2023-12-04T03:59:06.126Z,-0.75
2023-12-04T04:01:32.982Z,-0.77
2023-12-04T04:04:00.648Z,-0.78
2023-12-04T04:06:27.524Z,-0.77
2023-12-04T04:08:54.731Z,-0.77
2023-12-04T04:11:22.161Z,-0.78
2023-12-04T04:13:49.051Z,-0.82
2023-12-04T04:16:17.298Z,-0.99
2023-12-04T04:18:44.624Z,-0.85
2023-12-04T04:21:11.648Z,-0.84
2023-12-04T04:23:38.458Z,-0.86
2023-12-04T04:26:05.456Z,-1.09
2023-12-04T04:28:32.410Z,-0.99
2023-12-04T04:30:59.386Z,-1.17
2023-12-04T04:33:26.294Z,-1.06
2023-12-04T04:35:53.146Z,-0.94
2023-12-04T04:38:20.020Z,-0.89
2023-12-04T04:40:46.924Z,-0.88
2023-12-04T04:43:13.925Z,-0.82
2023-12-04T04:45:40.794Z,-0.86
2023-12-04T04:48:07.735Z,-0.81
2023-12-04T04:50:34.601Z,-0.76
2023-12-04T04:53:01.648Z,-0.71
2023-12-04T04:55:46.762Z,-0.79
2023-12-04T04:58:16.119Z,-0.67
2023-12-04T05:00:43.996Z,-0.67
2023-12-04T05:03:10.878Z,-0.85
2023-12-04T05:05:38.560Z,-0.65
2023-12-04T05:08:05.615Z,-0.70
2023-12-04T05:10:32.599Z,-0.66
2023-12-04T05:13:00.238Z,-0.63
2023-12-04T05:15:27.150Z,-0.59
2023-12-04T05:17:54.512Z,-0.59
2023-12-04T05:20:21.363Z,-0.63
2023-12-04T05:22:48.699Z,-0.59
2023-12-04T05:25:15.648Z,-0.57
2023-12-04T05:27:42.866Z,-0.57
2023-12-04T05:30:10.141Z,-0.58
2023-12-04T05:32:37.219Z,-0.57
2023-12-04T05:35:04.358Z,-0.59
2023-12-04T05:37:32.275Z,-0.56
2023-12-04T05:39:59.257Z,-0.54
2023-12-04T05:42:26.101Z,-0.54
2023-12-04T05:44:56.391Z,-0.54
2023-12-04T05:47:23.422Z,-0.56
2023-12-04T05:49:50.691Z,-0.58
2023-12-04T05:52:17.625Z,-0.55
2023-12-04T05:54:44.629Z,-0.57
2023-12-04T05:57:12.093Z,-0.52
2023-12-04T05:59:39.346Z,-0.50
2023-12-04T06:02:06.434Z,-0.63
2023-12-04T06:04:33.482Z,-0.57
2023-12-04T06:07:00.440Z,-0.57
2023-12-04T06:09:27.306Z,-0.52
2023-12-04T06:11:54.598Z,-0.46
2023-12-04T06:14:21.461Z,-0.52
2023-12-04T06:16:48.286Z,-0.46
2023-12-04T06:19:15.474Z,-0.41
2023-12-04T06:21:42.522Z,-0.37
2023-12-04T06:24:10.203Z,-0.44
2023-12-04T06:26:43.416Z,-0.44
2023-12-04T06:29:10.670Z,-0.39
2023-12-04T06:31:37.878Z,-0.56
2023-12-04T06:34:05.214Z,-0.34
2023-12-04T06:36:38.716Z,-0.29
2023-12-04T06:39:11.090Z,-0.42
2023-12-04T06:41:39.207Z,-0.26
2023-12-04T06:44:06.934Z,-0.24
2023-12-04T06:46:38.854Z,-0.24
2023-12-04T06:49:09.381Z,-0.20
2023-12-04T06:51:36.530Z,-0.20
2023-12-04T06:54:03.493Z,-0.19
2023-12-04T06:56:30.332Z,-0.20
2023-12-04T06:58:57.466Z,-0.18
2023-12-04T07:01:24.520Z,-0.25
2023-12-04T07:03:51.493Z,-0.16
2023-12-04T07:06:18.463Z,-0.15
2023-12-04T07:08:45.922Z,-0.13
2023-12-04T07:11:15.392Z,-0.28
2023-12-04T07:13:43.284Z,-0.13
2023-12-04T07:16:10.621Z,-0.12
2023-12-04T07:18:37.702Z,-0.16
2023-12-04T07:21:05.266Z,-0.15
2023-12-04T07:23:32.158Z,-0.12
2023-12-04T07:25:59.021Z,-0.24
2023-12-04T07:28:26.385Z,-0.15
2023-12-04T07:30:54.913Z,-0.23
2023-12-04T07:33:21.831Z,-0.11
2023-12-04T07:35:48.806Z,-0.12
2023-12-04T07:38:15.717Z,-0.11
2023-12-04T07:40:42.549Z,-0.15
2023-12-04T07:43:09.411Z,-0.05
2023-12-04T07:45:38.022Z,-0.58
2023-12-04T07:48:05.927Z,-0.38
2023-12-04T07:50:32.827Z,-0.20
2023-12-04T07:52:59.731Z,-0.29
2023-12-04T07:55:26.573Z,-0.08
2023-12-04T07:57:53.521Z,0.00
2023-12-04T08:00:21.013Z,-0.19
2023-12-04T08:02:47.943Z,-0.10
2023-12-04T08:05:15.844Z,-0.59
2023-12-04T08:07:42.701Z,-0.27
2023-12-04T08:10:09.947Z,-0.21
2023-12-04T08:12:36.855Z,-0.02
2023-12-04T08:15:05.837Z,-0.07
2023-12-04T08:17:32.728Z,-0.55
2023-12-04T08:19:59.858Z,-0.31
2023-12-04T08:22:26.760Z,-0.34
2023-12-04T08:24:54.291Z,-0.16
2023-12-04T08:27:21.231Z,-0.05
2023-12-04T08:29:48.126Z,-0.22
2023-12-04T08:32:14.971Z,0.09
2023-12-04T08:34:41.923Z,-0.69
2023-12-04T08:37:09.150Z,-0.31
2023-12-04T08:39:36.092Z,-0.71
2023-12-04T08:42:05.382Z,-0.37
2023-12-04T08:44:36.750Z,-0.12
2023-12-04T08:47:04.057Z,-0.59
2023-12-04T08:49:36.299Z,-0.48
2023-12-04T08:52:10.392Z,-0.66
2023-12-04T08:54:42.116Z,-1.03
2023-12-04T08:57:09.685Z,-0.98
2023-12-04T08:59:36.743Z,-0.64
2023-12-04T09:02:05.065Z,-0.95
2023-12-04T09:04:35.435Z,-1.30
2023-12-04T09:08:26.321Z,-1.58
2023-12-04T09:09:50.362Z,-1.46
2023-12-04T09:12:17.682Z,-1.82
2023-12-04T09:14:44.542Z,-1.65
2023-12-04T09:17:11.913Z,-1.53
2023-12-04T09:19:38.975Z,-1.43
2023-12-04T09:22:12.743Z,-1.02
2023-12-04T09:24:46.001Z,-1.32
2023-12-04T09:27:13.177Z,-0.94
2023-12-04T09:29:42.333Z,-0.77
2023-12-04T09:32:09.271Z,-0.45
2023-12-04T09:34:36.134Z,-0.30
2023-12-04T09:37:08.991Z,-0.14
2023-12-04T09:39:38.501Z,0.01
2023-12-04T09:42:05.710Z,0.12
2023-12-04T09:44:33.548Z,0.20
2023-12-04T09:47:02.680Z,0.28
2023-12-04T09:49:30.828Z,0.39
2023-12-04T09:52:06.234Z,0.42
2023-12-04T09:54:36.627Z,0.53
2023-12-04T09:57:05.917Z,0.55
2023-12-04T09:59:33.221Z,0.62
2023-12-04T10:02:00.520Z,0.67
2023-12-04T10:04:27.428Z,0.66
2023-12-04T10:06:54.651Z,0.63
2023-12-04T10:09:23.635Z,0.78
2023-12-04T10:11:54.291Z,0.81
2023-12-04T10:14:22.624Z,0.87
2023-12-04T10:16:50.917Z,0.92
2023-12-04T10:19:32.764Z,0.74
2023-12-04T10:22:01.594Z,0.79
2023-12-04T10:24:36.985Z,0.89
2023-12-04T10:27:13.249Z,0.79
2023-12-04T10:29:49.379Z,0.92
2023-12-04T10:32:23.356Z,0.99
2023-12-04T10:34:51.370Z,1.06
2023-12-04T10:37:18.947Z,1.10
2023-12-04T10:39:50.740Z,1.13
2023-12-04T10:42:29.036Z,1.03
2023-12-04T10:44:58.251Z,0.88
2023-12-04T10:47:25.762Z,0.98
2023-12-04T10:49:54.182Z,1.08
2023-12-04T10:52:21.400Z,0.96
2023-12-04T10:54:49.176Z,1.17
2023-12-04T10:57:34.733Z,1.20
2023-12-04T11:00:07.995Z,1.29
2023-12-04T11:02:36.578Z,1.32
2023-12-04T11:05:15.199Z,1.26
2023-12-04T11:08:13.643Z,1.41
2023-12-04T11:10:48.573Z,1.45
2023-12-04T11:13:38.782Z,1.52
2023-12-04T11:16:26.196Z,1.30
2023-12-04T11:19:05.973Z,1.37
2023-12-04T11:21:35.165Z,1.42
2023-12-04T11:24:03.094Z,1.36
2023-12-04T11:26:31.082Z,1.53
2023-12-04T11:28:58.726Z,1.35
2023-12-04T11:31:26.111Z,1.42
2023-12-04T11:33:53.217Z,1.55
2023-12-04T11:36:20.616Z,1.38
2023-12-04T11:38:50.665Z,1.50
2023-12-04T11:41:25.885Z,0.96
2023-12-04T11:43:57.577Z,0.83
2023-12-04T11:46:27.166Z,1.07
2023-12-04T11:49:27.164Z,1.32
2023-12-04T11:51:54.115Z,1.45
2023-12-04T11:54:25.894Z,1.29
2023-12-04T11:57:23.569Z,0.75
2023-12-04T11:59:50.700Z,0.65
2023-12-04T12:02:18.409Z,0.68
2023-12-04T12:04:46.881Z,0.95
2023-12-04T12:07:13.945Z,1.15
2023-12-04T12:09:41.641Z,1.38
2023-12-04T12:12:09.759Z,1.47
2023-12-04T12:14:36.643Z,1.60
2023-12-04T12:17:03.786Z,1.67
2023-12-04T12:19:30.952Z,1.65
2023-12-04T12:21:58.363Z,1.81
2023-12-04T12:24:27.114Z,1.85
2023-12-04T12:26:56.511Z,1.87
2023-12-04T12:29:23.449Z,1.83
2023-12-04T12:31:52.058Z,1.55
2023-12-04T12:34:19.235Z,1.40
2023-12-04T12:36:46.264Z,1.64
2023-12-04T12:39:13.522Z,1.47
2023-12-04T12:41:40.514Z,1.54
2023-12-04T12:44:07.394Z,1.44
2023-12-04T12:46:35.101Z,1.47
2023-12-04T12:49:02.099Z,1.65
2023-12-04T12:51:29.836Z,1.54
2023-12-04T12:53:58.453Z,1.58
2023-12-04T12:56:27.388Z,1.52
2023-12-04T12:58:55.008Z,1.31
2023-12-04T13:01:29.246Z,1.23
2023-12-04T13:03:58.423Z,1.47
2023-12-04T13:06:28.308Z,1.65
2023-12-04T13:08:56.491Z,1.68
2023-12-04T13:11:24.257Z,1.75
2023-12-04T13:13:51.355Z,1.78
2023-12-04T13:16:19.446Z,1.86
2023-12-04T13:18:46.394Z,1.94
2023-12-04T13:21:13.410Z,2.05
2023-12-04T13:23:40.781Z,2.07
2023-12-04T13:26:11.389Z,1.54
2023-12-04T13:28:44.142Z,1.46
2023-12-04T13:31:12.238Z,1.78
2023-12-04T13:33:39.191Z,1.63
2023-12-04T13:36:06.844Z,1.58
2023-12-04T13:38:37.755Z,1.49
2023-12-04T13:41:24.244Z,1.72
2023-12-04T13:43:51.194Z,1.89
2023-12-04T13:46:18.178Z,1.76
2023-12-04T13:48:45.575Z,1.51
2023-12-04T13:51:14.140Z,1.34
2023-12-04T13:53:46.078Z,1.35
2023-12-04T13:56:21.999Z,1.45
2023-12-04T13:58:56.767Z,1.54
2023-12-04T14:01:31.081Z,1.59
2023-12-04T14:04:05.353Z,1.79
2023-12-04T14:06:33.945Z,1.91
2023-12-04T14:09:01.095Z,2.00
2023-12-04T14:11:28.076Z,2.05
2023-12-04T14:13:56.010Z,1.79
2023-12-04T14:16:22.885Z,1.71
2023-12-04T14:18:49.823Z,1.37
2023-12-04T14:21:16.721Z,1.49
2023-12-04T14:23:43.563Z,1.59
2023-12-04T14:26:10.447Z,1.75
2023-12-04T14:28:42.761Z,1.63
2023-12-04T14:31:11.517Z,1.76
2023-12-04T14:33:41.904Z,1.26
2023-12-04T14:36:13.033Z,1.18
2023-12-04T14:38:41.186Z,1.38
2023-12-04T14:41:10.433Z,1.46
2023-12-04T14:43:38.662Z,1.39
2023-12-04T14:46:06.346Z,1.60
2023-12-04T14:48:33.914Z,1.66
2023-12-04T14:51:02.619Z,1.82
2023-12-04T14:53:33.216Z,1.95
2023-12-04T14:56:29.063Z,2.06
2023-12-04T14:59:15.375Z,2.24
2023-12-04T15:01:43.016Z,2.26
2023-12-04T15:04:09.992Z,2.10
2023-12-04T15:07:01.258Z,2.05
2023-12-04T15:09:28.358Z,2.02
2023-12-04T15:12:13.799Z,1.78
2023-12-04T15:14:49.034Z,1.65
2023-12-04T15:17:46.161Z,1.63
2023-12-04T15:20:13.124Z,1.82
2023-12-04T15:22:39.997Z,1.96
2023-12-04T15:25:12.629Z,1.90
2023-12-04T15:27:39.653Z,1.88
2023-12-04T15:30:09.455Z,1.80
2023-12-04T15:32:36.480Z,1.77
2023-12-04T15:35:06.094Z,1.98
2023-12-04T15:37:35.462Z,2.17
2023-12-04T15:40:03.354Z,2.05
2023-12-04T15:42:30.268Z,1.80
2023-12-04T15:44:57.167Z,1.96
2023-12-04T15:47:25.750Z,2.02
2023-12-04T15:49:52.745Z,2.04
2023-12-04T15:52:20.037Z,2.16
2023-12-04T15:54:49.029Z,2.18
2023-12-04T15:57:17.378Z,2.00
2023-12-04T15:59:46.654Z,2.26
2023-12-04T16:02:14.687Z,2.19
2023-12-04T16:04:41.713Z,2.43
2023-12-04T16:07:08.778Z,2.24
2023-12-04T16:09:35.811Z,2.32
2023-12-04T16:12:02.829Z,2.44
2023-12-04T16:14:29.666Z,2.55
2023-12-04T16:16:57.787Z,2.64
2023-12-04T16:19:25.551Z,2.69
2023-12-04T16:21:52.530Z,2.76
2023-12-04T16:24:22.829Z,2.75
2023-12-04T16:26:52.341Z,2.84
2023-12-04T16:29:20.496Z,2.84
2023-12-04T16:31:48.035Z,2.72
2023-12-04T16:34:15.343Z,2.87
2023-12-04T16:36:42.303Z,2.74
2023-12-04T16:39:09.342Z,2.73
2023-12-04T16:41:36.799Z,2.69
2023-12-04T16:44:03.637Z,2.83
2023-12-04T16:46:31.533Z,2.90
2023-12-04T16:48:59.092Z,2.93
2023-12-04T16:51:26.906Z,2.93
2023-12-04T16:53:56.127Z,2.85
2023-12-04T16:56:23.816Z,2.96
2023-12-04T16:58:50.780Z,2.96
2023-12-04T17:01:17.732Z,2.94
2023-12-04T17:03:44.774Z,2.74
2023-12-04T17:06:11.938Z,2.92
2023-12-04T17:08:38.890Z,2.92
2023-12-04T17:11:07.738Z,2.86
2023-12-04T17:13:34.676Z,2.92
2023-12-04T17:16:01.553Z,2.82
2023-12-04T17:18:28.509Z,2.79
2023-12-04T17:20:55.395Z,2.86
2023-12-04T17:23:22.465Z,2.82
2023-12-04T17:25:50.998Z,2.79
2023-12-04T17:28:20.178Z,2.69
2023-12-04T17:30:47.998Z,2.84
2023-12-04T17:33:15.087Z,2.78
2023-12-04T17:35:42.080Z,2.83
2023-12-04T17:38:08.998Z,2.70
2023-12-04T17:40:35.879Z,2.72
2023-12-04T17:43:02.900Z,2.83
2023-12-04T17:45:33.741Z,2.76
2023-12-04T17:48:01.490Z,2.82
2023-12-04T17:50:28.419Z,2.85
2023-12-04T17:52:55.259Z,2.80
2023-12-04T17:55:23.489Z,2.70
2023-12-04T17:57:50.369Z,2.83
2023-12-04T18:00:19.927Z,2.73
2023-12-04T18:02:47.148Z,2.89
2023-12-04T18:05:14.575Z,2.89
2023-12-04T18:07:43.807Z,2.92
2023-12-04T18:10:11.711Z,2.99
2023-12-04T18:12:41.054Z,3.13
2023-12-04T18:15:13.310Z,3.14
2023-12-04T18:17:43.478Z,3.19
2023-12-04T18:20:14.784Z,3.07
2023-12-04T18:22:43.747Z,3.09
2023-12-04T18:25:11.826Z,3.08
2023-12-04T18:27:40.643Z,3.03
2023-12-04T18:30:11.356Z,3.07
2023-12-04T18:32:38.731Z,3.16
2023-12-04T18:35:06.448Z,3.22
2023-12-04T18:37:45.332Z,3.24
2023-12-04T18:40:14.171Z,3.28
2023-12-04T18:42:41.468Z,3.31
2023-12-04T18:45:09.487Z,3.35
2023-12-04T18:47:45.886Z,3.29
2023-12-04T18:50:13.112Z,3.37
2023-12-04T18:52:40.274Z,3.39
2023-12-04T18:55:08.592Z,3.38
2023-12-04T18:57:35.887Z,3.34
2023-12-04T19:00:02.875Z,3.39
2023-12-04T19:02:29.784Z,3.35
2023-12-04T19:04:56.997Z,3.37
2023-12-04T19:07:23.966Z,3.36
2023-12-04T19:09:51.624Z,3.36
2023-12-04T19:12:18.468Z,3.36
2023-12-04T19:14:45.324Z,3.39
2023-12-04T19:17:12.716Z,3.27
2023-12-04T19:19:39.955Z,3.23
2023-12-04T19:22:07.670Z,3.22
2023-12-04T19:24:34.494Z,2.92
2023-12-04T19:27:01.446Z,3.01
2023-12-04T19:29:29.977Z,2.86
2023-12-04T19:31:57.150Z,2.91
2023-12-04T19:34:24.415Z,2.99
2023-12-04T19:36:51.531Z,3.05
2023-12-04T19:39:18.563Z,3.08
2023-12-04T19:41:45.432Z,3.17
2023-12-04T19:44:13.114Z,3.24
2023-12-04T19:46:43.754Z,3.22
2023-12-04T19:49:11.159Z,3.25
2023-12-04T19:51:45.239Z,3.23
2023-12-04T19:54:12.238Z,3.21
2023-12-04T19:56:46.042Z,3.08
2023-12-04T19:59:13.361Z,2.79
2023-12-04T20:01:40.854Z,2.88
2023-12-04T20:04:08.288Z,2.86
2023-12-04T20:06:35.386Z,2.86
2023-12-04T20:09:02.357Z,2.97
2023-12-04T20:11:29.282Z,3.14
2023-12-04T20:13:56.434Z,3.21
2023-12-04T20:16:23.870Z,3.25
2023-12-04T20:18:50.830Z,3.16
2023-12-04T20:21:17.870Z,3.19
2023-12-04T20:23:44.792Z,3.24
2023-12-04T20:26:11.777Z,3.22
2023-12-04T20:28:38.734Z,3.10
2023-12-04T20:31:05.615Z,3.15
2023-12-04T20:33:32.921Z,3.14
2023-12-04T20:36:05.786Z,3.18
2023-12-04T20:38:32.777Z,3.16
2023-12-04T20:40:59.589Z,3.03
2023-12-04T20:43:26.548Z,3.08
2023-12-04T20:45:53.420Z,3.01
2023-12-04T20:48:20.408Z,2.99
2023-12-04T20:50:47.314Z,3.03
2023-12-04T20:53:14.198Z,3.10
2023-12-04T20:55:41.088Z,3.13
2023-12-04T20:58:08.169Z,3.20
2023-12-04T21:00:35.808Z,3.28
2023-12-04T21:03:04.307Z,3.33
2023-12-04T21:05:31.499Z,3.28
2023-12-04T21:07:59.050Z,3.22
2023-12-04T21:10:26.741Z,3.23
2023-12-04T21:12:53.633Z,3.09
2023-12-04T21:15:20.591Z,3.09
2023-12-04T21:17:47.678Z,3.16
2023-12-04T21:20:14.822Z,3.05
2023-12-04T21:22:42.919Z,3.05
2023-12-04T21:25:12.200Z,3.11
2023-12-04T21:27:39.446Z,2.92
2023-12-04T21:30:08.792Z,3.21
2023-12-04T21:32:35.761Z,3.27
2023-12-04T21:35:02.768Z,3.29
2023-12-04T21:37:29.641Z,3.20
2023-12-04T21:39:56.610Z,3.27
2023-12-04T21:42:24.710Z,3.32
2023-12-04T21:44:51.860Z,3.36
2023-12-04T21:47:18.720Z,3.45
2023-12-04T21:49:46.685Z,3.44
2023-12-04T21:52:13.659Z,3.49
2023-12-04T21:54:40.559Z,3.51
2023-12-04T21:57:07.409Z,3.47
2023-12-04T21:59:34.337Z,3.53
2023-12-04T22:02:01.265Z,3.47
2023-12-04T22:04:28.347Z,3.47
2023-12-04T22:06:55.998Z,3.45
2023-12-04T22:09:25.447Z,3.21
2023-12-04T22:11:52.673Z,3.38
2023-12-04T22:14:19.557Z,3.30
2023-12-04T22:16:46.527Z,3.37
2023-12-04T22:19:13.558Z,3.34
2023-12-04T22:21:40.442Z,3.37
2023-12-04T22:24:07.536Z,3.41
2023-12-04T22:26:34.632Z,3.44
2023-12-04T22:29:01.453Z,3.49
2023-12-04T22:31:28.325Z,3.56
2023-12-04T22:33:55.294Z,3.58
2023-12-04T22:36:22.175Z,3.60
2023-12-04T22:38:49.134Z,3.49
2023-12-04T22:41:16.031Z,3.25
2023-12-04T22:43:43.707Z,3.39
2023-12-04T22:46:10.791Z,3.47
2023-12-04T22:48:38.591Z,3.47
2023-12-04T22:51:08.708Z,3.53
2023-12-04T22:53:35.753Z,3.54
2023-12-04T22:56:02.659Z,3.53
2023-12-04T22:58:29.680Z,3.51
2023-12-04T23:00:56.934Z,3.49
2023-12-04T23:03:24.387Z,3.46
2023-12-04T23:05:51.389Z,3.09
2023-12-04T23:08:18.943Z,3.17
2023-12-04T23:10:46.007Z,3.27
2023-12-04T23:13:13.410Z,3.34
2023-12-04T23:15:40.610Z,3.40
2023-12-04T23:18:07.715Z,3.30
2023-12-04T23:20:34.791Z,3.30
2023-12-04T23:23:01.734Z,3.21
2023-12-04T23:25:28.720Z,3.17
2023-12-04T23:27:56.537Z,3.21
2023-12-04T23:30:23.500Z,3.37
2023-12-04T23:32:50.518Z,3.46
2023-12-04T23:35:17.394Z,3.34
2023-12-04T23:37:44.220Z,3.30
2023-12-04T23:40:11.463Z,3.35
2023-12-04T23:42:38.342Z,3.42
2023-12-04T23:45:07.066Z,3.43
2023-12-04T23:47:33.932Z,3.42
2023-12-04T23:50:00.788Z,3.42
2023-12-04T23:52:27.654Z,3.51
2023-12-04T23:54:54.594Z,3.49
2023-12-04T23:57:21.618Z,3.55
2023-12-04T23:59:48.875Z,3.55
